Time;durP1;ratioP1;P1;durP2;ratioP2;P2;SDS_P1;SDS_P2;PMS_P1;PMS_P2;Temp;Humidity;BMP_temperature;BMP_pressure;BME280_temperature;BME280_humidity;BME280_pressure;Samples;Min_cycle;Max_cycle;Signal;HPM_P1;HPM_P2
2022/03/11 00:00:57;;;;;;;14.30;12.57;;;;;21.20;100848.00;;;;2074560;28;20237;-51
2022/03/11 00:01:57;;;;;;;12.97;11.67;;;;;21.20;100849.00;;;;2072205;28;20570;-53
2022/03/11 00:02:58;;;;;;;14.53;12.70;;;;;21.20;100853.00;;;;2070529;28;20210;-52
2022/03/11 00:03:58;;;;;;;14.10;12.63;;;;;21.20;100846.00;;;;2073843;28;20221;-52
2022/03/11 00:04:59;;;;;;;13.70;12.30;;;;;21.10;100844.00;;;;2071383;28;20234;-51
2022/03/11 00:05:59;;;;;;;14.37;12.17;;;;;21.10;100844.00;;;;2077528;28;20213;-50
2022/03/11 00:06:59;;;;;;;12.40;11.20;;;;;21.10;100839.00;;;;2077917;28;20304;-51
2022/03/11 00:07:59;;;;;;;12.87;11.57;;;;;21.10;100848.00;;;;2058674;28;20263;-51
2022/03/11 00:09:00;;;;;;;13.70;12.23;;;;;21.10;100838.00;;;;2079547;28;20206;-52
2022/03/11 00:10:00;;;;;;;12.70;11.40;;;;;21.10;100833.00;;;;2075378;28;20265;-52
2022/03/11 00:11:01;;;;;;;12.80;11.60;;;;;21.10;100838.00;;;;2070544;28;20210;-52
2022/03/11 00:12:01;;;;;;;10.93;9.83;;;;;21.10;100843.00;;;;2072207;28;20214;-51
2022/03/11 00:13:01;;;;;;;12.03;10.83;;;;;21.10;100837.00;;;;2075412;28;20218;-52
2022/03/11 00:14:02;;;;;;;12.60;11.07;;;;;21.10;100833.00;;;;2073641;28;20217;-51
2022/03/11 00:15:04;;;;;;;11.57;10.37;;;;;21.10;100834.00;;;;2070779;28;20206;-51
2022/03/11 00:16:04;;;;;;;12.32;11.13;;;;;21.10;100827.00;;;;2070407;28;20276;-51
2022/03/11 00:17:05;;;;;;;12.63;9.87;;;;;21.10;100836.00;;;;2069664;28;20897;-51
2022/03/11 00:18:06;;;;;;;12.75;11.20;;;;;21.10;100831.00;;;;2068142;28;20250;-52
2022/03/11 00:19:06;;;;;;;11.20;10.10;;;;;21.10;100831.00;;;;2070254;28;20214;-51
2022/03/11 00:20:07;;;;;;;12.37;11.07;;;;;21.10;100834.00;;;;2070053;28;20217;-51
2022/03/11 00:21:12;;;;;;;12.03;10.70;;;;;21.10;100831.00;;;;2070169;28;20206;-51
2022/03/11 00:22:12;;;;;;;12.52;11.23;;;;;21.10;100823.00;;;;2070266;28;20210;-50
2022/03/11 00:23:12;;;;;;;11.73;10.47;;;;;21.10;100824.00;;;;2067502;28;20218;-52
2022/03/11 00:24:13;;;;;;;11.00;9.87;;;;;21.10;100829.00;;;;2073020;28;20209;-52
2022/03/11 00:25:13;;;;;;;12.50;10.83;;;;;21.10;100833.00;;;;2077842;28;20209;-51
2022/03/11 00:26:14;;;;;;;10.30;9.27;;;;;21.10;100825.00;;;;2077069;28;20217;-51
2022/03/11 00:27:14;;;;;;;12.20;10.90;;;;;21.10;100833.00;;;;2077202;28;20213;-50
2022/03/11 00:28:15;;;;;;;10.40;9.40;;;;;21.10;100823.00;;;;2078398;28;20209;-51
2022/03/11 00:29:15;;;;;;;10.20;9.10;;;;;21.10;100835.00;;;;2078657;28;20218;-52
2022/03/11 00:30:16;;;;;;;9.73;8.83;;;;;21.00;100828.00;;;;2078429;28;20221;-52
2022/03/11 00:31:16;;;;;;;10.87;9.77;;;;;21.00;100833.00;;;;2075705;28;20785;-51
2022/03/11 00:32:16;;;;;;;11.60;10.40;;;;;21.00;100835.00;;;;2070278;28;20592;-51
2022/03/11 00:33:17;;;;;;;9.80;8.80;;;;;21.00;100838.00;;;;2068620;28;20226;-51
2022/03/11 00:34:17;;;;;;;9.70;8.70;;;;;21.00;100836.00;;;;2069469;28;20244;-52
2022/03/11 00:35:19;;;;;;;10.97;9.97;;;;;21.00;100834.00;;;;2069398;28;20237;-50
2022/03/11 00:36:19;;;;;;;9.77;8.77;;;;;21.00;100833.00;;;;2064709;28;20210;-51
2022/03/11 00:37:19;;;;;;;8.83;7.93;;;;;21.00;100826.00;;;;2068939;28;20222;-51
2022/03/11 00:38:19;;;;;;;9.43;8.47;;;;;21.00;100831.00;;;;2077096;28;20248;-51
2022/03/11 00:39:20;;;;;;;10.20;9.27;;;;;21.00;100829.00;;;;2077040;28;20209;-51
2022/03/11 00:40:20;;;;;;;9.90;8.90;;;;;21.00;100836.00;;;;2078104;28;20232;-51
2022/03/11 00:41:20;;;;;;;9.47;8.50;;;;;21.00;100834.00;;;;2078338;28;20206;-51
2022/03/11 00:42:21;;;;;;;9.73;8.73;;;;;21.00;100828.00;;;;2073287;28;20206;-51
2022/03/11 00:43:25;;;;;;;10.27;9.13;;;;;21.00;100843.00;;;;2075891;28;20292;-51
2022/03/11 00:44:25;;;;;;;9.63;8.52;;;;;21.00;100829.00;;;;2077966;28;20461;-51
2022/03/11 00:45:26;;;;;;;8.83;8.03;;;;;21.00;100837.00;;;;2077088;28;20224;-51
2022/03/11 00:46:26;;;;;;;10.40;8.40;;;;;21.00;100823.00;;;;2071711;28;20263;-51
2022/03/11 00:47:27;;;;;;;9.00;8.10;;;;;21.00;100825.00;;;;2068961;28;20218;-51
2022/03/11 00:48:27;;;;;;;9.23;8.33;;;;;21.00;100827.00;;;;2076015;28;20225;-51
2022/03/11 00:49:27;;;;;;;8.63;7.83;;;;;21.00;100831.00;;;;2074055;28;20245;-52
2022/03/11 00:50:27;;;;;;;8.40;7.50;;;;;21.00;100828.00;;;;2070550;28;20245;-51
2022/03/11 00:51:28;;;;;;;9.10;8.20;;;;;21.00;100825.00;;;;2072611;28;20210;-51
2022/03/11 00:52:28;;;;;;;9.50;8.50;;;;;21.00;100831.00;;;;2075523;28;20210;-51
2022/03/11 00:53:29;;;;;;;9.73;8.73;;;;;21.00;100824.00;;;;2077774;28;20209;-51
2022/03/11 00:54:29;;;;;;;8.67;7.80;;;;;21.00;100828.00;;;;2070250;28;20313;-51
2022/03/11 00:55:29;;;;;;;8.30;7.50;;;;;21.00;100832.00;;;;2069615;28;20214;-52
2022/03/11 00:56:30;;;;;;;9.63;8.10;;;;;21.00;100833.00;;;;2070399;28;20207;-52
2022/03/11 00:57:31;;;;;;;8.90;8.00;;;;;20.90;100834.00;;;;2069340;28;20218;-51
2022/03/11 00:58:31;;;;;;;8.00;7.20;;;;;20.90;100818.00;;;;2064942;28;20241;-51
2022/03/11 00:59:31;;;;;;;8.10;7.30;;;;;20.90;100833.00;;;;2068056;28;20206;-51
2022/03/11 01:00:32;;;;;;;8.50;7.60;;;;;20.90;100830.00;;;;2064634;28;20314;-52
2022/03/11 01:01:32;;;;;;;7.93;7.13;;;;;20.90;100828.00;;;;2079229;28;20241;-51
2022/03/11 01:02:34;;;;;;;8.10;7.33;;;;;20.90;100828.00;;;;2080620;28;20218;-52
2022/03/11 01:03:35;;;;;;;8.40;7.50;;;;;20.90;100816.00;;;;2078478;28;20218;-51
2022/03/11 01:04:35;;;;;;;7.80;7.10;;;;;20.90;100814.00;;;;2075767;28;20276;-51
2022/03/11 01:05:35;;;;;;;7.90;7.10;;;;;20.90;100821.00;;;;2069128;28;20222;-51
2022/03/11 01:06:36;;;;;;;7.67;6.90;;;;;20.90;100819.00;;;;2078319;28;20290;-51
2022/03/11 01:07:36;;;;;;;8.97;7.87;;;;;20.90;100820.00;;;;2076795;28;20243;-52
2022/03/11 01:08:36;;;;;;;7.70;6.90;;;;;20.90;100819.00;;;;2063563;28;20708;-51
2022/03/11 01:09:37;;;;;;;6.80;6.20;;;;;20.90;100811.00;;;;2063252;28;20233;-51
2022/03/11 01:10:38;;;;;;;7.03;6.33;;;;;20.90;100816.00;;;;2069926;28;20206;-51
2022/03/11 01:11:38;;;;;;;7.23;6.57;;;;;20.90;100812.00;;;;2071324;28;20325;-51
2022/03/11 01:12:38;;;;;;;8.10;7.40;;;;;20.90;100818.00;;;;2071575;28;20462;-51
2022/03/11 01:13:39;;;;;;;8.07;7.27;;;;;20.90;100813.00;;;;2070434;28;20249;-51
2022/03/11 01:14:39;;;;;;;7.30;6.60;;;;;20.90;100810.00;;;;2069488;28;20221;-51
2022/03/11 01:15:40;;;;;;;7.77;7.00;;;;;20.90;100809.00;;;;2069471;28;20321;-51
2022/03/11 01:16:40;;;;;;;7.67;6.97;;;;;20.90;100809.00;;;;2069506;28;20218;-51
2022/03/11 01:17:40;;;;;;;7.50;6.53;;;;;20.90;100807.00;;;;2069780;28;20520;-51
2022/03/11 01:18:41;;;;;;;7.50;6.80;;;;;20.90;100803.00;;;;2069348;28;21054;-51
2022/03/11 01:19:42;;;;;;;6.80;6.10;;;;;20.90;100805.00;;;;2071587;28;20577;-51
2022/03/11 01:20:42;;;;;;;7.30;6.60;;;;;20.90;100804.00;;;;2072914;28;20556;-51
2022/03/11 01:21:42;;;;;;;7.83;7.03;;;;;20.90;100804.00;;;;2070240;28;20210;-51
2022/03/11 01:22:43;;;;;;;6.43;5.83;;;;;20.90;100800.00;;;;2076317;28;20268;-51
2022/03/11 01:23:43;;;;;;;6.80;6.20;;;;;20.90;100806.00;;;;2078395;28;20243;-51
2022/03/11 01:24:43;;;;;;;6.90;6.30;;;;;20.90;100796.00;;;;2069577;28;20248;-51
2022/03/11 01:25:44;;;;;;;7.10;6.40;;;;;20.90;100795.00;;;;2077316;28;20336;-51
2022/03/11 01:26:44;;;;;;;7.10;6.40;;;;;20.80;100789.00;;;;2074981;28;20308;-51
2022/03/11 01:27:44;;;;;;;7.57;6.80;;;;;20.80;100793.00;;;;2077511;28;20245;-51
2022/03/11 01:28:45;;;;;;;6.57;5.97;;;;;20.80;100797.00;;;;2077196;28;20689;-51
2022/03/11 01:29:45;;;;;;;6.93;6.30;;;;;20.80;100794.00;;;;2077712;28;20671;-51
2022/03/11 01:30:46;;;;;;;7.83;6.50;;;;;20.90;100788.00;;;;2077721;28;20213;-51
2022/03/11 01:31:46;;;;;;;6.20;5.60;;;;;20.80;100786.00;;;;2077090;28;20663;-51
2022/03/11 01:32:46;;;;;;;6.60;6.00;;;;;20.80;100783.00;;;;2076469;28;20673;-51
2022/03/11 01:33:47;;;;;;;6.90;6.30;;;;;20.80;100792.00;;;;2069554;28;20752;-51
2022/03/11 01:34:47;;;;;;;6.73;6.10;;;;;20.80;100786.00;;;;2069747;28;20615;-50
2022/03/11 01:35:48;;;;;;;7.00;6.40;;;;;20.80;100789.00;;;;2072199;28;20568;-52
2022/03/11 01:36:48;;;;;;;6.50;5.90;;;;;20.80;100788.00;;;;2078011;28;20745;-52
2022/03/11 01:37:49;;;;;;;6.80;6.20;;;;;20.80;100789.00;;;;2077882;28;20456;-51
2022/03/11 01:38:49;;;;;;;7.23;6.00;;;;;20.80;100784.00;;;;2075424;28;20218;-52
2022/03/11 01:39:49;;;;;;;7.00;6.40;;;;;20.80;100784.00;;;;2070411;28;20275;-51
2022/03/11 01:40:50;;;;;;;6.77;6.13;;;;;20.80;100780.00;;;;2077780;28;20725;-51
2022/03/11 01:41:50;;;;;;;7.43;6.23;;;;;20.80;100787.00;;;;2077661;28;20224;-51
2022/03/11 01:42:50;;;;;;;6.73;5.90;;;;;20.80;100785.00;;;;2076545;28;20221;-51
2022/03/11 01:43:51;;;;;;;5.93;5.37;;;;;20.80;100786.00;;;;2077878;28;20209;-51
2022/03/11 01:44:54;;;;;;;6.53;6.00;;;;;20.80;100783.00;;;;2077755;28;20950;-51
2022/03/11 01:45:56;;;;;;;6.57;5.88;;;;;20.80;100786.00;;;;2077370;28;20623;-51
2022/03/11 01:46:56;;;;;;;6.90;6.30;;;;;20.80;100785.00;;;;2076407;28;20308;-55
2022/03/11 01:47:57;;;;;;;6.40;5.80;;;;;20.80;100777.00;;;;2078657;28;20677;-51
2022/03/11 01:48:57;;;;;;;6.80;6.10;;;;;20.80;100786.00;;;;2075940;28;20240;-52
2022/03/11 01:49:57;;;;;;;5.97;5.47;;;;;20.80;100783.00;;;;2079797;28;20393;-52
2022/03/11 01:50:58;;;;;;;6.10;5.60;;;;;20.80;100778.00;;;;2079877;28;20209;-51
2022/03/11 01:51:58;;;;;;;5.90;5.40;;;;;20.80;100776.00;;;;2080093;28;20216;-51
2022/03/11 01:52:58;;;;;;;5.73;5.17;;;;;20.80;100780.00;;;;2070748;28;20211;-50
2022/03/11 01:53:59;;;;;;;6.37;5.80;;;;;20.80;100778.00;;;;2062530;28;20235;-51
2022/03/11 01:54:59;;;;;;;6.67;5.80;;;;;20.80;100777.00;;;;2070717;28;20228;-51
2022/03/11 01:55:59;;;;;;;6.10;5.60;;;;;20.80;100769.00;;;;2069843;28;20242;-50
2022/03/11 01:57:00;;;;;;;6.20;5.53;;;;;20.80;100778.00;;;;2071197;28;20325;-51
2022/03/11 01:58:01;;;;;;;7.20;5.97;;;;;20.80;100774.00;;;;2068475;28;20206;-51
2022/03/11 01:59:01;;;;;;;6.23;5.53;;;;;20.80;100774.00;;;;2068551;28;20327;-50
2022/03/11 02:00:05;;;;;;;6.23;5.53;;;;;20.80;100775.00;;;;2063305;28;20548;-52
2022/03/11 02:01:06;;;;;;;7.47;6.22;;;;;20.80;100712.00;;;;2076355;28;20209;-51
2022/03/11 02:02:06;;;;;;;6.40;5.80;;;;;20.80;100773.00;;;;2078804;28;20334;-52
2022/03/11 02:03:07;;;;;;;6.17;5.37;;;;;20.80;100774.00;;;;2070079;28;20705;-51
2022/03/11 02:04:07;;;;;;;5.95;5.35;;;;;20.70;100774.00;;;;2071054;28;20234;-52
2022/03/11 02:05:08;;;;;;;6.63;5.70;;;;;20.70;100764.00;;;;2079172;28;20220;-52
2022/03/11 02:06:08;;;;;;;6.80;5.60;;;;;20.70;100770.00;;;;2079179;28;20304;-51
2022/03/11 02:07:10;;;;;;;6.13;5.53;;;;;20.70;100761.00;;;;2076805;28;20210;-51
2022/03/11 02:08:10;;;;;;;6.25;5.65;;;;;20.70;100754.00;;;;2062527;28;20732;-50
2022/03/11 02:09:11;;;;;;;6.10;5.50;;;;;20.70;100764.00;;;;2062560;28;20203;-51
2022/03/11 02:10:11;;;;;;;6.10;5.60;;;;;20.70;100765.00;;;;2068261;28;20436;-51
2022/03/11 02:11:11;;;;;;;6.30;5.70;;;;;20.70;100768.00;;;;2071012;28;20206;-50
2022/03/11 02:12:12;;;;;;;6.00;5.40;;;;;20.70;100762.00;;;;2072299;28;20213;-51
2022/03/11 02:13:12;;;;;;;6.90;5.73;;;;;20.70;100761.00;;;;2064185;28;20213;-51
2022/03/11 02:14:12;;;;;;;6.77;6.00;;;;;20.70;100757.00;;;;2069384;28;20748;-52
2022/03/11 02:15:13;;;;;;;6.80;5.57;;;;;20.70;100761.00;;;;2078181;28;20716;-51
2022/03/11 02:16:40;;;;;;;5.37;4.87;;;;;20.70;100758.00;;;;2070240;28;20245;-50
2022/03/11 02:17:40;;;;;;;6.10;5.50;;;;;20.70;100765.00;;;;2077887;28;20728;-50
2022/03/11 02:18:41;;;;;;;5.53;5.03;;;;;20.70;100754.00;;;;2076668;28;20213;-51
2022/03/11 02:19:41;;;;;;;6.03;5.43;;;;;20.70;100761.00;;;;2078791;28;20287;-51
2022/03/11 02:20:41;;;;;;;5.83;5.30;;;;;20.70;100760.00;;;;2077468;28;20209;-51
2022/03/11 02:21:46;;;;;;;5.87;5.30;;;;;20.70;100756.00;;;;2077877;28;20275;-51
2022/03/11 02:22:50;;;;;;;6.40;5.80;;;;;20.70;100759.00;;;;2078431;28;20221;-51
2022/03/11 02:23:52;;;;;;;6.80;6.10;;;;;20.70;100755.00;;;;2078444;28;20780;-51
2022/03/11 02:24:52;;;;;;;5.88;5.38;;;;;20.70;100756.00;;;;2074158;28;20313;-51
2022/03/11 02:25:53;;;;;;;5.43;4.93;;;;;20.70;100754.00;;;;2069982;28;20664;-52
2022/03/11 02:26:54;;;;;;;5.80;5.17;;;;;20.70;100753.00;;;;2071162;28;20230;-52
2022/03/11 02:27:54;;;;;;;5.57;5.07;;;;;20.70;100760.00;;;;2070960;28;20484;-52
2022/03/11 02:28:55;;;;;;;6.10;5.50;;;;;20.70;100747.00;;;;2070742;28;20229;-52
2022/03/11 02:29:56;;;;;;;5.70;5.15;;;;;20.70;100754.00;;;;2070856;28;20820;-51
2022/03/11 02:30:56;;;;;;;5.80;5.20;;;;;20.70;100743.00;;;;2070800;28;20214;-51
2022/03/11 02:31:56;;;;;;;6.03;5.43;;;;;20.70;100746.00;;;;2070340;28;20309;-51
2022/03/11 02:32:57;;;;;;;5.60;5.10;;;;;20.70;100747.00;;;;2070413;28;20285;-52
2022/03/11 02:33:58;;;;;;;6.40;5.90;;;;;20.70;100748.00;;;;2070197;28;20237;-50
2022/03/11 02:34:58;;;;;;;5.57;5.07;;;;;20.70;100743.00;;;;2070978;28;20244;-51
2022/03/11 02:35:59;;;;;;;5.97;5.37;;;;;20.60;100756.00;;;;2070168;28;20224;-52
2022/03/11 02:36:59;;;;;;;5.83;5.20;;;;;20.70;100736.00;;;;2070420;28;20206;-52
2022/03/11 02:38:00;;;;;;;5.77;5.03;;;;;20.60;100737.00;;;;2070628;28;20515;-51
2022/03/11 02:39:00;;;;;;;6.00;5.40;;;;;20.60;100704.00;;;;2070875;28;20641;-50
2022/03/11 02:40:00;;;;;;;5.83;5.33;;;;;20.60;100747.00;;;;2070700;28;20304;-51
2022/03/11 02:41:01;;;;;;;5.40;4.90;;;;;20.60;100742.00;;;;2070665;28;20237;-51
2022/03/11 02:42:04;;;;;;;5.27;4.77;;;;;20.60;100741.00;;;;2071430;28;20210;-50
2022/03/11 02:43:04;;;;;;;5.63;5.13;;;;;20.60;100745.00;;;;2071420;28;20237;-51
2022/03/11 02:44:05;;;;;;;5.63;5.13;;;;;20.60;100744.00;;;;2071386;28;20214;-51
2022/03/11 02:45:05;;;;;;;6.00;5.40;;;;;20.60;100745.00;;;;2071272;28;20269;-51
2022/03/11 02:46:06;;;;;;;5.77;5.10;;;;;20.60;100737.00;;;;2075086;28;20262;-52
2022/03/11 02:47:06;;;;;;;5.70;5.10;;;;;20.60;100746.00;;;;2078349;28;20720;-52
2022/03/11 02:48:06;;;;;;;6.00;5.40;;;;;20.60;100738.00;;;;2078939;28;20700;-52
2022/03/11 02:49:07;;;;;;;6.33;5.57;;;;;20.60;100738.00;;;;2078828;28;20321;-51
2022/03/11 02:50:08;;;;;;;5.77;5.17;;;;;20.60;100737.00;;;;2078958;28;20224;-51
2022/03/11 02:51:08;;;;;;;5.00;4.50;;;;;20.60;100736.00;;;;2079606;28;20205;-51
2022/03/11 02:52:08;;;;;;;5.03;4.60;;;;;20.60;100734.00;;;;2078265;28;20212;-54
2022/03/11 02:53:09;;;;;;;6.03;5.43;;;;;20.60;100734.00;;;;2078732;28;20692;-50
2022/03/11 02:54:09;;;;;;;6.13;5.53;;;;;20.60;100729.00;;;;2076495;28;20674;-55
2022/03/11 02:55:10;;;;;;;5.53;5.03;;;;;20.60;100731.00;;;;2077603;28;20220;-54
2022/03/11 02:56:10;;;;;;;5.80;5.20;;;;;20.60;100734.00;;;;2069320;28;20214;-52
2022/03/11 02:57:10;;;;;;;5.60;5.10;;;;;20.60;100734.00;;;;2076546;28;20280;-52
2022/03/11 02:58:11;;;;;;;5.60;5.00;;;;;20.60;100736.00;;;;2076345;28;20719;-52
2022/03/11 02:59:11;;;;;;;5.50;4.87;;;;;20.60;100734.00;;;;2073746;28;20576;-52
2022/03/11 03:00:12;;;;;;;5.50;5.00;;;;;20.60;100739.00;;;;2075483;28;20213;-51
2022/03/11 03:01:12;;;;;;;6.20;5.67;;;;;20.60;100734.00;;;;2078620;28;20213;-51
2022/03/11 03:02:13;;;;;;;5.50;5.00;;;;;20.60;100738.00;;;;2078794;28;20440;-51
2022/03/11 03:03:13;;;;;;;5.87;4.87;;;;;20.60;100729.00;;;;2078408;28;20217;-52
2022/03/11 03:04:13;;;;;;;6.10;5.10;;;;;20.60;100730.00;;;;2078831;28;20304;-53
2022/03/11 03:05:15;;;;;;;5.60;4.57;;;;;20.60;100733.00;;;;2077556;28;20213;-52
2022/03/11 03:06:15;;;;;;;5.88;5.15;;;;;20.60;100732.00;;;;2076637;28;20214;-52
2022/03/11 03:07:16;;;;;;;5.40;4.90;;;;;20.60;100725.00;;;;2078487;28;20576;-51
2022/03/11 03:08:16;;;;;;;6.40;5.80;;;;;20.60;100724.00;;;;2078425;28;20851;-51
2022/03/11 03:09:16;;;;;;;6.20;5.60;;;;;20.60;100728.00;;;;2072621;28;20257;-51
2022/03/11 03:10:17;;;;;;;5.00;4.50;;;;;20.60;100723.00;;;;2071276;28;20206;-51
2022/03/11 03:11:17;;;;;;;5.97;5.37;;;;;20.60;100722.00;;;;2071216;28;20252;-51
2022/03/11 03:12:17;;;;;;;5.43;4.93;;;;;20.60;100725.00;;;;2074500;28;20206;-51
2022/03/11 03:13:18;;;;;;;5.40;4.90;;;;;20.60;100714.00;;;;2070778;28;20297;-51
2022/03/11 03:14:19;;;;;;;5.87;5.30;;;;;20.60;100723.00;;;;2070294;28;20209;-53
2022/03/11 03:15:19;;;;;;;5.10;4.60;;;;;20.60;100724.00;;;;2059875;28;20231;-52
2022/03/11 03:16:19;;;;;;;5.43;4.93;;;;;20.50;100722.00;;;;2077767;28;20217;-50
2022/03/11 03:17:21;;;;;;;5.40;4.90;;;;;20.60;100721.00;;;;2076964;28;20877;-51
2022/03/11 03:18:22;;;;;;;5.47;5.00;;;;;20.60;100722.00;;;;2068754;28;20664;-51
2022/03/11 03:19:22;;;;;;;5.95;4.85;;;;;20.60;100723.00;;;;2062281;28;20203;-51
2022/03/11 03:20:23;;;;;;;5.50;4.90;;;;;20.60;100717.00;;;;2061990;28;20203;-50
2022/03/11 03:21:25;;;;;;;5.67;5.17;;;;;20.50;100722.00;;;;2068803;28;20214;-50
2022/03/11 03:22:25;;;;;;;5.65;5.15;;;;;20.50;100719.00;;;;2067766;28;20203;-52
2022/03/11 03:23:26;;;;;;;5.53;5.00;;;;;20.50;100722.00;;;;2070656;28;20241;-52
2022/03/11 03:24:26;;;;;;;5.70;5.00;;;;;20.50;100722.00;;;;2069952;28;20289;-51
2022/03/11 03:25:27;;;;;;;5.40;4.90;;;;;20.50;100713.00;;;;2060956;28;20207;-52
2022/03/11 03:26:27;;;;;;;6.17;5.57;;;;;20.50;100722.00;;;;2053673;28;20204;-51
2022/03/11 03:27:27;;;;;;;5.87;5.27;;;;;20.50;100709.00;;;;2076963;28;20216;-51
2022/03/11 03:28:28;;;;;;;5.90;5.30;;;;;20.50;100710.00;;;;2078858;28;20569;-50
2022/03/11 03:29:28;;;;;;;5.67;5.10;;;;;20.50;100718.00;;;;2069896;28;20745;-51
2022/03/11 03:30:29;;;;;;;6.60;5.57;;;;;20.50;100708.00;;;;2069167;28;20786;-52
2022/03/11 03:31:29;;;;;;;5.47;4.97;;;;;20.50;100705.00;;;;2085953;28;20259;-51
2022/03/11 03:32:29;;;;;;;5.23;4.73;;;;;20.50;100714.00;;;;2078965;28;20841;-51
2022/03/11 03:33:31;;;;;;;6.10;5.50;;;;;20.50;100705.00;;;;2078736;28;20206;-51
2022/03/11 03:34:33;;;;;;;5.05;4.55;;;;;20.50;100708.00;;;;2069921;28;20218;-52
2022/03/11 03:35:34;;;;;;;5.55;5.05;;;;;20.50;100699.00;;;;2061695;28;20269;-51
2022/03/11 03:36:34;;;;;;;5.60;5.10;;;;;20.50;100705.00;;;;2070098;28;20222;-51
2022/03/11 03:37:34;;;;;;;5.37;4.70;;;;;20.50;100705.00;;;;2077663;28;20984;-51
2022/03/11 03:38:35;;;;;;;6.03;5.40;;;;;20.50;100701.00;;;;2076351;28;20763;-51
2022/03/11 03:39:36;;;;;;;6.20;5.60;;;;;20.50;100706.00;;;;2078839;28;20301;-52
2022/03/11 03:40:36;;;;;;;6.10;5.53;;;;;20.50;100700.00;;;;2078361;28;20224;-51
2022/03/11 03:41:36;;;;;;;5.90;5.40;;;;;20.50;100704.00;;;;2078614;28;20214;-51
2022/03/11 03:42:37;;;;;;;5.73;5.10;;;;;20.50;100707.00;;;;2078799;28;20223;-50
2022/03/11 03:43:37;;;;;;;5.53;5.03;;;;;20.50;100709.00;;;;2078741;28;20209;-52
2022/03/11 03:44:37;;;;;;;5.57;5.07;;;;;20.50;100708.00;;;;2077520;28;20565;-52
2022/03/11 03:45:39;;;;;;;5.23;4.73;;;;;20.50;100705.00;;;;2077668;28;21115;-52
2022/03/11 03:46:40;;;;;;;5.30;4.80;;;;;20.50;100700.00;;;;2078032;28;20213;-51
2022/03/11 03:47:40;;;;;;;5.40;4.90;;;;;20.50;100710.00;;;;2077778;28;20570;-51
2022/03/11 03:48:41;;;;;;;5.33;4.83;;;;;20.50;100712.00;;;;2074635;28;20209;-51
2022/03/11 03:49:41;;;;;;;5.60;5.10;;;;;20.50;100705.00;;;;2077324;28;20359;-51
2022/03/11 03:50:41;;;;;;;5.10;4.63;;;;;20.50;100713.00;;;;2077553;28;20460;-52
2022/03/11 03:51:42;;;;;;;5.60;5.10;;;;;20.50;100696.00;;;;2078361;28;20213;-51
2022/03/11 03:52:42;;;;;;;5.90;5.30;;;;;20.50;100700.00;;;;2077944;28;20245;-52
2022/03/11 03:53:42;;;;;;;5.13;4.63;;;;;20.40;100699.00;;;;2078308;28;20699;-51
2022/03/11 03:54:44;;;;;;;5.40;4.90;;;;;20.50;100697.00;;;;2077649;28;20236;-52
2022/03/11 03:55:44;;;;;;;5.97;5.38;;;;;20.50;100705.00;;;;2078181;28;20669;-52
2022/03/11 03:56:45;;;;;;;5.47;4.97;;;;;20.50;100697.00;;;;2078756;28;20221;-52
2022/03/11 03:57:45;;;;;;;6.50;5.90;;;;;20.50;100706.00;;;;2077829;28;20232;-52
2022/03/11 03:58:45;;;;;;;5.60;5.10;;;;;20.50;100699.00;;;;2078095;28;20308;-52
2022/03/11 03:59:46;;;;;;;6.50;5.80;;;;;20.40;100692.00;;;;2078022;28;20220;-52
2022/03/11 04:00:46;;;;;;;6.20;5.60;;;;;20.50;100694.00;;;;2077570;28;20217;-51
2022/03/11 04:01:46;;;;;;;6.73;5.03;;;;;20.50;100696.00;;;;2078067;28;20214;-52
2022/03/11 04:02:48;;;;;;;5.60;5.10;;;;;20.40;100692.00;;;;2078370;28;20225;-51
2022/03/11 04:03:48;;;;;;;6.25;5.65;;;;;20.50;100703.00;;;;2077830;28;20221;-51
2022/03/11 04:04:48;;;;;;;5.27;4.77;;;;;20.50;100696.00;;;;2078350;28;21007;-51
2022/03/11 04:05:49;;;;;;;5.83;5.33;;;;;20.50;100700.00;;;;2077362;28;20271;-51
2022/03/11 04:06:49;;;;;;;6.23;5.63;;;;;20.40;100699.00;;;;2078246;28;20218;-51
2022/03/11 04:07:49;;;;;;;5.90;5.40;;;;;20.40;100682.00;;;;2075018;28;20225;-51
2022/03/11 04:08:50;;;;;;;5.47;5.00;;;;;20.40;100696.00;;;;2071758;28;20210;-51
2022/03/11 04:09:50;;;;;;;5.70;5.10;;;;;20.40;100690.00;;;;2073268;28;20217;-51
2022/03/11 04:10:50;;;;;;;5.83;5.33;;;;;20.40;100694.00;;;;2077808;28;20229;-51
2022/03/11 04:11:51;;;;;;;5.67;5.17;;;;;20.40;100691.00;;;;2078431;28;20212;-51
2022/03/11 04:12:51;;;;;;;5.70;5.20;;;;;20.40;100687.00;;;;2070981;28;20214;-51
2022/03/11 04:13:52;;;;;;;6.07;5.47;;;;;20.40;100690.00;;;;2070573;28;20214;-51
2022/03/11 04:14:52;;;;;;;5.70;5.20;;;;;20.40;100694.00;;;;2070841;28;20222;-51
2022/03/11 04:15:52;;;;;;;6.00;5.50;;;;;20.40;100696.00;;;;2069698;28;20271;-51
2022/03/11 04:16:53;;;;;;;6.00;5.43;;;;;20.40;100684.00;;;;2070211;28;20222;-52
2022/03/11 04:17:53;;;;;;;6.87;6.27;;;;;20.40;100688.00;;;;2070371;28;20225;-51
2022/03/11 04:18:54;;;;;;;6.40;5.80;;;;;20.40;100688.00;;;;2070507;28;20210;-51
2022/03/11 04:19:54;;;;;;;6.63;5.97;;;;;20.40;100685.00;;;;2070692;28;20210;-51
2022/03/11 04:20:54;;;;;;;5.47;4.97;;;;;20.40;100686.00;;;;2070569;28;20210;-51
2022/03/11 04:21:55;;;;;;;5.50;5.00;;;;;20.40;100685.00;;;;2070683;28;20213;-51
2022/03/11 04:22:55;;;;;;;6.37;5.77;;;;;20.40;100684.00;;;;2070878;28;20272;-51
2022/03/11 04:23:55;;;;;;;6.57;5.80;;;;;20.40;100681.00;;;;2067875;28;20305;-51
2022/03/11 04:24:56;;;;;;;5.93;5.43;;;;;20.40;100685.00;;;;2070567;28;20220;-51
2022/03/11 04:25:56;;;;;;;6.10;5.50;;;;;20.40;100682.00;;;;2069603;28;20296;-51
2022/03/11 04:26:56;;;;;;;6.37;5.77;;;;;20.40;100701.00;;;;2069988;28;20284;-50
2022/03/11 04:27:57;;;;;;;6.27;5.67;;;;;20.40;100685.00;;;;2068422;28;20914;-57
2022/03/11 04:28:57;;;;;;;6.27;5.70;;;;;20.40;100683.00;;;;2070642;28;20215;-55
2022/03/11 04:29:57;;;;;;;6.83;5.77;;;;;20.40;100684.00;;;;2077331;28;20263;-56
2022/03/11 04:30:58;;;;;;;6.13;5.53;;;;;20.40;100685.00;;;;2078685;28;20262;-51
2022/03/11 04:31:59;;;;;;;6.10;5.50;;;;;20.40;100688.00;;;;2073382;28;20218;-53
2022/03/11 04:32:59;;;;;;;7.60;5.70;;;;;20.40;100680.00;;;;2076630;28;20716;-52
2022/03/11 04:34:01;;;;;;;6.27;5.77;;;;;20.30;100684.00;;;;2075898;28;20703;-53
2022/03/11 04:35:01;;;;;;;6.43;5.88;;;;;20.40;100686.00;;;;2078309;28;20320;-53
2022/03/11 04:36:03;;;;;;;5.90;5.30;;;;;20.40;100696.00;;;;2076830;28;20205;-51
2022/03/11 04:37:04;;;;;;;6.05;5.45;;;;;20.40;100685.00;;;;2077729;28;20280;-52
2022/03/11 04:38:04;;;;;;;5.83;5.30;;;;;20.30;100689.00;;;;2078544;28;20582;-52
2022/03/11 04:39:06;;;;;;;6.47;5.87;;;;;20.40;100684.00;;;;2074750;28;20217;-52
2022/03/11 04:40:06;;;;;;;5.85;5.35;;;;;20.30;100683.00;;;;2077863;28;20806;-52
2022/03/11 04:41:07;;;;;;;5.80;5.30;;;;;20.30;100685.00;;;;2078113;28;20217;-53
2022/03/11 04:42:09;;;;;;;6.57;5.97;;;;;20.30;100687.00;;;;2076558;28;20466;-52
2022/03/11 04:43:09;;;;;;;6.60;5.65;;;;;20.30;100685.00;;;;2078687;28;20233;-52
2022/03/11 04:44:09;;;;;;;5.87;5.37;;;;;20.30;100686.00;;;;2075263;28;20222;-52
2022/03/11 04:45:10;;;;;;;5.80;5.30;;;;;20.10;100680.00;;;;2071792;28;20251;-53
2022/03/11 04:46:10;;;;;;;6.10;5.60;;;;;20.30;100687.00;;;;2068894;28;20218;-52
2022/03/11 04:47:10;;;;;;;6.10;5.57;;;;;20.30;100680.00;;;;2068702;28;20313;-51
2022/03/11 04:48:11;;;;;;;6.10;5.60;;;;;20.30;100680.00;;;;2069540;28;20225;-51
2022/03/11 04:49:12;;;;;;;6.10;5.50;;;;;20.30;100685.00;;;;2062938;28;20221;-51
2022/03/11 04:50:12;;;;;;;6.70;6.00;;;;;20.30;100679.00;;;;2069914;28;20480;-51
2022/03/11 04:51:14;;;;;;;6.30;5.70;;;;;20.30;100681.00;;;;2069624;28;20586;-51
2022/03/11 04:52:14;;;;;;;6.57;5.97;;;;;20.30;100687.00;;;;2069579;28;20202;-51
2022/03/11 04:53:14;;;;;;;6.47;5.87;;;;;20.30;100682.00;;;;2069851;28;20701;-51
2022/03/11 04:54:14;;;;;;;7.00;6.30;;;;;20.30;100681.00;;;;2070177;28;20202;-51
2022/03/11 04:55:16;;;;;;;6.23;5.63;;;;;20.30;100683.00;;;;2069791;28;20198;-51
2022/03/11 04:56:16;;;;;;;6.22;5.72;;;;;20.30;100692.00;;;;2069181;28;20218;-51
2022/03/11 04:57:17;;;;;;;6.53;5.83;;;;;20.30;100683.00;;;;2068450;28;20308;-51
2022/03/11 04:58:17;;;;;;;6.50;5.90;;;;;20.30;100682.00;;;;2068688;28;20808;-51
2022/03/11 04:59:18;;;;;;;6.20;5.60;;;;;20.30;100679.00;;;;2069298;28;20207;-51